createdAt,value
2018-11-05T00:01:49.185Z,18.10
2018-11-05T00:04:16.680Z,16.50
2018-11-05T00:06:44.247Z,15.33
2018-11-05T00:09:12.558Z,17.40
2018-11-05T00:11:40.132Z,13.00
2018-11-05T00:14:08.094Z,13.97
2018-11-05T00:16:35.738Z,16.70
2018-11-05T00:19:03.418Z,13.80
2018-11-05T00:21:30.922Z,15.33
2018-11-05T00:23:58.353Z,13.07
2018-11-05T00:26:25.899Z,17.67
2018-11-05T00:28:53.322Z,14.77
2018-11-05T00:31:20.841Z,16.40
2018-11-05T00:33:48.345Z,16.23
2018-11-05T00:36:15.852Z,14.20
2018-11-05T00:38:43.388Z,15.83
2018-11-05T00:41:10.895Z,13.60
2018-11-05T00:43:38.308Z,17.17
2018-11-05T00:46:06.246Z,15.93
2018-11-05T00:48:33.698Z,13.67
2018-11-05T00:51:01.153Z,17.33
2018-11-05T00:53:28.721Z,13.37
2018-11-05T00:55:56.835Z,20.63
2018-11-05T00:58:24.270Z,16.60
2018-11-05T01:00:51.705Z,14.27
2018-11-05T01:03:19.294Z,14.47
2018-11-05T01:05:46.732Z,16.53
2018-11-05T01:08:14.354Z,17.90
2018-11-05T01:10:41.843Z,15.50
2018-11-05T01:13:09.374Z,19.60
2018-11-05T01:15:36.814Z,16.60
2018-11-05T01:18:04.415Z,13.63
2018-11-05T01:20:31.946Z,16.73
2018-11-05T01:22:59.661Z,14.60
2018-11-05T01:25:27.166Z,18.23
2018-11-05T01:27:54.608Z,13.43
2018-11-05T01:30:22.109Z,15.27
2018-11-05T01:32:49.931Z,16.00
2018-11-05T01:35:17.478Z,13.27
2018-11-05T01:37:44.902Z,15.03
2018-11-05T01:40:14.489Z,18.53
2018-11-05T01:42:42.171Z,14.87
2018-11-05T01:45:10.950Z,15.30
2018-11-05T01:47:38.478Z,16.00
2018-11-05T01:50:07.569Z,17.90
2018-11-05T01:52:35.036Z,16.30
2018-11-05T01:55:02.623Z,15.47
2018-11-05T01:57:30.191Z,15.37
2018-11-05T01:59:57.765Z,15.17
2018-11-05T02:02:25.186Z,15.47
2018-11-05T02:04:52.762Z,12.67
2018-11-05T02:07:20.250Z,15.33
2018-11-05T02:09:47.747Z,13.30
2018-11-05T02:12:15.179Z,18.40
2018-11-05T02:14:42.621Z,19.23
2018-11-05T02:17:10.257Z,13.93
2018-11-05T02:19:37.796Z,17.47
2018-11-05T02:22:05.580Z,14.97
2018-11-05T02:24:33.060Z,13.53
2018-11-05T02:27:00.615Z,14.90
2018-11-05T02:29:28.118Z,15.10
2018-11-05T02:31:55.738Z,13.70
2018-11-05T02:34:23.150Z,15.60
2018-11-05T02:36:50.833Z,18.80
2018-11-05T02:39:18.313Z,14.20
2018-11-05T02:41:45.829Z,15.67
2018-11-05T02:44:13.220Z,16.17
2018-11-05T02:46:40.721Z,13.63
2018-11-05T02:49:08.130Z,15.43
2018-11-05T02:51:35.614Z,13.50
2018-11-05T02:54:03.108Z,16.27
2018-11-05T02:56:30.682Z,14.30
2018-11-05T02:58:58.156Z,18.77
2018-11-05T03:01:25.852Z,14.17
2018-11-05T03:03:53.257Z,12.70
2018-11-05T03:06:20.765Z,16.57
2018-11-05T03:08:48.550Z,15.00
2018-11-05T03:11:15.986Z,20.73
2018-11-05T03:13:43.604Z,14.13
2018-11-05T03:16:11.087Z,16.40
2018-11-05T03:18:38.592Z,16.30
2018-11-05T03:21:06.168Z,12.50
2018-11-05T03:23:33.652Z,13.17
2018-11-05T03:26:01.097Z,14.10
2018-11-05T03:28:28.514Z,12.83
2018-11-05T03:30:55.983Z,15.60
2018-11-05T03:33:23.424Z,14.30
2018-11-05T03:35:50.954Z,15.30
2018-11-05T03:38:18.467Z,12.60
2018-11-05T03:40:46.056Z,13.43
2018-11-05T03:43:13.463Z,12.83
2018-11-05T03:45:40.954Z,15.13
2018-11-05T03:48:08.334Z,12.20
2018-11-05T03:50:36.261Z,11.47
2018-11-05T03:53:03.771Z,13.13
2018-11-05T03:55:31.381Z,13.03
2018-11-05T03:57:58.757Z,12.87
2018-11-05T04:00:26.346Z,13.20
2018-11-05T04:02:53.803Z,11.33
2018-11-05T04:05:21.334Z,17.40
2018-11-05T04:07:48.834Z,15.50
2018-11-05T04:10:16.323Z,14.33
2018-11-05T04:12:43.794Z,13.60
2018-11-05T04:15:11.475Z,13.40
2018-11-05T04:17:38.907Z,11.90
2018-11-05T04:20:08.431Z,13.73
2018-11-05T04:22:36.005Z,15.13
2018-11-05T04:25:04.084Z,14.07
2018-11-05T04:27:31.590Z,12.33
2018-11-05T04:29:59.174Z,13.80
2018-11-05T04:32:26.701Z,13.73
2018-11-05T04:34:54.119Z,13.90
2018-11-05T04:37:21.583Z,13.03
2018-11-05T04:39:49.067Z,13.87
2018-11-05T04:42:16.559Z,16.17
2018-11-05T04:44:44.375Z,12.80
2018-11-05T04:47:11.802Z,14.83
2018-11-05T04:49:39.253Z,13.77
2018-11-05T04:52:06.815Z,16.93
2018-11-05T04:54:34.689Z,18.07
2018-11-05T04:57:02.131Z,13.67
2018-11-05T04:59:29.688Z,17.20
2018-11-05T05:01:57.111Z,13.90
2018-11-05T05:04:24.535Z,14.63
2018-11-05T05:06:52.073Z,13.60
2018-11-05T05:09:19.615Z,16.40
2018-11-05T05:11:47.073Z,19.50
2018-11-05T05:14:14.503Z,15.40
2018-11-05T05:16:42.011Z,21.53
2018-11-05T05:19:09.455Z,16.93
2018-11-05T05:21:36.955Z,14.30
2018-11-05T05:24:04.673Z,13.30
2018-11-05T05:26:32.106Z,15.60
2018-11-05T05:28:59.664Z,12.73
2018-11-05T05:31:27.115Z,13.77
2018-11-05T05:33:54.631Z,17.90
2018-11-05T05:36:22.134Z,12.47
2018-11-05T05:38:49.556Z,16.10
2018-11-05T05:41:17.276Z,20.10
2018-11-05T05:43:44.744Z,13.90
2018-11-05T05:46:12.193Z,13.40
2018-11-05T05:48:39.746Z,26.57
2018-11-05T05:51:07.228Z,15.67
2018-11-05T05:53:34.795Z,19.10
2018-11-05T05:56:02.273Z,19.47
2018-11-05T05:58:29.836Z,20.60
2018-11-05T06:00:57.420Z,15.83
2018-11-05T06:03:24.922Z,26.00
2018-11-05T06:05:52.433Z,25.13
2018-11-05T06:08:20.325Z,22.37
2018-11-05T06:10:47.832Z,23.17
2018-11-05T06:13:15.364Z,19.63
2018-11-05T06:15:42.812Z,31.30
2018-11-05T06:18:10.310Z,31.53
2018-11-05T06:20:37.991Z,21.10
2018-11-05T06:23:05.498Z,30.23
2018-11-05T06:25:33.039Z,20.57
2018-11-05T06:28:00.500Z,27.17
2018-11-05T06:30:28.025Z,19.77
2018-11-05T06:32:55.428Z,23.17
2018-11-05T06:35:23.091Z,16.27
2018-11-05T06:37:50.558Z,18.20
2018-11-05T06:40:19.352Z,18.60
2018-11-05T06:42:47.133Z,21.53
2018-11-05T06:45:15.968Z,22.27
2018-11-05T06:47:44.395Z,19.03
2018-11-05T06:50:14.217Z,26.10
2018-11-05T06:52:42.730Z,22.50
2018-11-05T06:55:10.849Z,17.57
2018-11-05T06:57:38.818Z,23.53
2018-11-05T07:00:16.339Z,17.50
2018-11-05T07:02:44.221Z,15.97
2018-11-05T07:05:12.041Z,19.20
2018-11-05T07:07:39.805Z,22.73
2018-11-05T07:10:09.345Z,19.10
2018-11-05T07:12:37.301Z,22.70
2018-11-05T07:15:06.251Z,25.53
2018-11-05T07:17:33.786Z,26.10
2018-11-05T07:20:01.377Z,25.20
2018-11-05T07:22:29.038Z,29.97
2018-11-05T07:24:56.612Z,28.67
2018-11-05T07:27:24.132Z,25.47
2018-11-05T07:29:52.044Z,29.17
2018-11-05T07:32:19.554Z,21.10
2018-11-05T07:34:47.161Z,27.60
2018-11-05T07:37:14.738Z,27.37
2018-11-05T07:39:42.178Z,31.10
2018-11-05T07:42:09.722Z,19.97
2018-11-05T07:44:37.510Z,27.50
2018-11-05T07:47:05.038Z,27.20
2018-11-05T07:49:32.844Z,22.20
2018-11-05T07:52:00.383Z,29.80
2018-11-05T07:54:27.850Z,23.47
2018-11-05T07:56:55.431Z,26.80
2018-11-05T07:59:22.852Z,33.77
2018-11-05T08:01:50.362Z,27.60
2018-11-05T08:04:17.912Z,26.17
2018-11-05T08:06:45.466Z,28.93
2018-11-05T08:09:13.066Z,24.83
2018-11-05T08:11:41.080Z,26.80
2018-11-05T08:14:08.949Z,31.20
2018-11-05T08:16:37.059Z,26.17
2018-11-05T08:19:05.570Z,22.70
2018-11-05T08:21:33.171Z,32.40
2018-11-05T08:24:00.677Z,26.57
2018-11-05T08:26:28.166Z,26.60
2018-11-05T08:28:55.626Z,28.67
2018-11-05T08:31:23.312Z,25.57
2018-11-05T08:33:50.722Z,22.63
2018-11-05T08:36:18.159Z,24.00
2018-11-05T08:38:45.670Z,29.70
2018-11-05T08:41:13.163Z,26.13
2018-11-05T08:43:40.579Z,22.83
2018-11-05T08:46:08.095Z,26.30
2018-11-05T08:48:35.574Z,28.50
2018-11-05T08:51:03.264Z,25.10
2018-11-05T08:53:30.552Z,32.00
2018-11-05T08:55:58.332Z,24.23
2018-11-05T08:58:25.932Z,26.33
2018-11-05T09:00:55.469Z,20.93
2018-11-05T09:03:23.293Z,25.20
2018-11-05T09:05:50.956Z,24.87
2018-11-05T09:08:18.437Z,24.03
2018-11-05T09:10:46.320Z,45.53
2018-11-05T09:13:13.417Z,25.20
2018-11-05T09:15:41.168Z,24.80
2018-11-05T09:18:08.611Z,25.37
2018-11-05T09:20:36.296Z,27.33
2018-11-05T09:23:04.411Z,29.73
2018-11-05T09:25:32.075Z,25.80
2018-11-05T09:27:59.842Z,30.03
2018-11-05T09:30:27.343Z,26.17
2018-11-05T09:32:55.037Z,24.63
2018-11-05T09:35:22.557Z,27.43
2018-11-05T09:37:50.155Z,28.23
2018-11-05T09:40:22.138Z,22.60
2018-11-05T09:42:50.104Z,21.27
2018-11-05T09:45:19.833Z,23.80
2018-11-05T09:47:47.608Z,26.83
2018-11-05T09:50:15.772Z,39.17
2018-11-05T09:52:43.248Z,23.77
2018-11-05T09:55:11.739Z,24.37
2018-11-05T09:57:39.459Z,24.60
2018-11-05T10:00:12.622Z,24.13
2018-11-05T10:02:45.785Z,24.70
2018-11-05T10:05:13.915Z,26.53
2018-11-05T10:07:41.450Z,28.80
2018-11-05T10:10:10.182Z,24.20
2018-11-05T10:12:38.260Z,23.97
2018-11-05T10:15:06.751Z,26.33
2018-11-05T10:17:34.397Z,21.43
2018-11-05T10:20:01.984Z,23.20
2018-11-05T10:22:29.426Z,25.53
2018-11-05T10:24:57.062Z,23.20
2018-11-05T10:27:24.528Z,24.40
2018-11-05T10:29:52.022Z,25.87
2018-11-05T10:32:19.586Z,26.27
2018-11-05T10:34:47.116Z,23.10
2018-11-05T10:37:14.826Z,23.73
2018-11-05T10:39:42.270Z,28.80
2018-11-05T10:42:09.887Z,27.30
2018-11-05T10:44:37.365Z,36.43
2018-11-05T10:47:04.974Z,22.50
2018-11-05T10:49:32.471Z,21.20
2018-11-05T10:51:59.998Z,28.63
2018-11-05T10:54:27.316Z,28.63
2018-11-05T10:56:54.938Z,27.33
2018-11-05T10:59:22.431Z,24.00
2018-11-05T11:01:55.985Z,24.03
2018-11-05T11:04:29.329Z,23.37
2018-11-05T11:06:56.866Z,28.40
2018-11-05T11:09:24.427Z,27.67
2018-11-05T11:11:51.920Z,26.53
2018-11-05T11:14:19.546Z,22.83
2018-11-05T11:16:47.100Z,30.37
2018-11-05T11:19:14.548Z,25.07
2018-11-05T11:21:42.126Z,36.30
2018-11-05T11:24:09.631Z,21.17
2018-11-05T11:26:37.349Z,19.17
2018-11-05T11:29:05.191Z,24.10
2018-11-05T11:31:32.640Z,27.37
2018-11-05T11:34:00.114Z,25.50
2018-11-05T11:36:27.699Z,22.50
2018-11-05T11:38:55.129Z,21.00
2018-11-05T11:41:22.889Z,25.60
2018-11-05T11:43:50.673Z,23.93
2018-11-05T11:46:18.302Z,27.97
2018-11-05T11:48:45.781Z,27.00
2018-11-05T11:51:13.438Z,28.13
2018-11-05T11:53:40.854Z,25.07
2018-11-05T11:56:08.400Z,40.80
2018-11-05T11:58:35.905Z,32.60
2018-11-05T12:01:03.675Z,24.47
2018-11-05T12:03:31.119Z,26.63
2018-11-05T12:05:58.558Z,28.03
2018-11-05T12:08:25.987Z,26.40
2018-11-05T12:10:53.468Z,20.77
2018-11-05T12:13:20.958Z,27.63
2018-11-05T12:15:48.509Z,27.47
2018-11-05T12:18:15.942Z,27.17
2018-11-05T12:20:43.391Z,28.30
2018-11-05T12:23:10.783Z,26.77
2018-11-05T12:25:38.245Z,30.50
2018-11-05T12:28:05.783Z,28.30
2018-11-05T12:30:33.363Z,25.17
2018-11-05T12:33:00.841Z,24.10
2018-11-05T12:35:28.443Z,24.63
2018-11-05T12:37:55.918Z,25.50
2018-11-05T12:40:23.474Z,27.33
2018-11-05T12:42:51.373Z,25.53
2018-11-05T12:45:18.868Z,27.57
2018-11-05T12:47:46.474Z,29.80
2018-11-05T12:50:18.906Z,27.80
2018-11-05T12:52:47.426Z,21.93
2018-11-05T12:55:14.860Z,29.90
2018-11-05T12:57:42.575Z,32.70
2018-11-05T13:00:13.148Z,24.70
2018-11-05T13:02:40.628Z,25.20
2018-11-05T13:05:09.367Z,24.33
2018-11-05T13:07:36.969Z,22.17
2018-11-05T13:10:06.722Z,28.57
2018-11-05T13:12:34.411Z,24.43
2018-11-05T13:15:01.955Z,29.17
2018-11-05T13:17:29.405Z,28.87
2018-11-05T13:19:56.839Z,31.53
2018-11-05T13:22:24.398Z,24.60
2018-11-05T13:24:51.859Z,25.60
2018-11-05T13:27:19.430Z,28.83
2018-11-05T13:29:46.949Z,25.00
2018-11-05T13:32:14.539Z,30.93
2018-11-05T13:34:42.831Z,28.23
2018-11-05T13:37:10.589Z,25.03
2018-11-05T13:39:37.805Z,25.73
2018-11-05T13:42:05.639Z,27.63
2018-11-05T13:44:33.113Z,31.23
2018-11-05T13:47:00.977Z,24.20
2018-11-05T13:49:28.196Z,29.80
2018-11-05T13:51:55.618Z,23.40
2018-11-05T13:54:23.096Z,25.67
2018-11-05T13:56:50.588Z,23.60
2018-11-05T13:59:18.176Z,25.30
2018-11-05T14:01:45.685Z,30.47
2018-11-05T14:04:13.111Z,27.90
2018-11-05T14:06:40.579Z,32.93
2018-11-05T14:09:08.878Z,26.83
2018-11-05T14:11:36.373Z,25.00
2018-11-05T14:14:04.205Z,26.57
2018-11-05T14:16:31.696Z,26.10
2018-11-05T14:18:59.233Z,21.00
2018-11-05T14:21:26.676Z,37.87
2018-11-05T14:23:54.313Z,36.50
2018-11-05T14:26:21.771Z,24.80
2018-11-05T14:28:49.512Z,23.50
2018-11-05T14:31:16.693Z,25.93
2018-11-05T14:33:44.278Z,41.33
2018-11-05T14:36:11.749Z,39.47
2018-11-05T14:38:39.394Z,38.77
2018-11-05T14:41:07.091Z,35.83
2018-11-05T14:43:34.817Z,27.67
2018-11-05T14:46:02.393Z,29.87
2018-11-05T14:48:30.006Z,29.30
2018-11-05T14:50:57.438Z,26.30
2018-11-05T14:53:25.028Z,27.87
2018-11-05T14:55:52.547Z,35.53
2018-11-05T14:58:20.028Z,31.60
2018-11-05T15:00:47.497Z,28.80
2018-11-05T15:03:14.938Z,30.23
2018-11-05T15:05:42.436Z,31.80
2018-11-05T15:08:09.972Z,25.80
2018-11-05T15:10:37.526Z,30.83
2018-11-05T15:13:05.415Z,24.57
2018-11-05T15:15:32.878Z,32.67
2018-11-05T15:18:00.517Z,29.20
2018-11-05T15:20:28.029Z,35.07
2018-11-05T15:22:55.486Z,29.50
2018-11-05T15:25:23.320Z,34.87
2018-11-05T15:27:50.722Z,31.97
2018-11-05T15:30:19.442Z,32.30
2018-11-05T15:32:47.000Z,32.80
2018-11-05T15:35:14.788Z,30.10
2018-11-05T15:37:42.746Z,31.63
2018-11-05T15:40:12.409Z,31.83
2018-11-05T15:42:40.244Z,38.13
2018-11-05T15:45:09.665Z,28.93
2018-11-05T15:47:37.629Z,27.53
2018-11-05T15:50:07.469Z,34.60
2018-11-05T15:52:35.152Z,32.53
2018-11-05T15:55:02.538Z,34.53
2018-11-05T15:57:29.992Z,29.03
2018-11-05T15:59:57.508Z,33.93
2018-11-05T16:02:24.935Z,29.73
2018-11-05T16:04:52.400Z,32.63
2018-11-05T16:07:20.010Z,36.63
2018-11-05T16:09:47.591Z,38.43
2018-11-05T16:12:15.137Z,38.33
2018-11-05T16:14:42.875Z,39.83
2018-11-05T16:17:10.385Z,36.27
2018-11-05T16:19:44.862Z,43.13
2018-11-05T16:22:12.482Z,35.70
2018-11-05T16:24:39.924Z,32.73
2018-11-05T16:27:07.434Z,35.93
2018-11-05T16:29:35.031Z,31.77
2018-11-05T16:32:02.792Z,35.10
2018-11-05T16:34:30.188Z,33.30
2018-11-05T16:36:57.680Z,38.47
2018-11-05T16:39:25.211Z,40.93
2018-11-05T16:41:52.933Z,37.67
2018-11-05T16:44:20.370Z,33.90
2018-11-05T16:46:47.938Z,36.63
2018-11-05T16:49:15.491Z,34.30
2018-11-05T16:51:43.302Z,33.80
2018-11-05T16:54:10.953Z,38.57
2018-11-05T16:56:38.578Z,41.13
2018-11-05T16:59:06.238Z,34.67
2018-11-05T17:01:34.171Z,35.60
2018-11-05T17:04:01.302Z,39.80
2018-11-05T17:06:28.825Z,39.90
2018-11-05T17:08:56.372Z,36.97
2018-11-05T17:11:23.849Z,31.37
2018-11-05T17:13:51.533Z,54.43
2018-11-05T17:16:19.023Z,40.67
2018-11-05T17:18:46.586Z,43.90
2018-11-05T17:21:14.238Z,38.73
2018-11-05T17:23:41.716Z,37.10
2018-11-05T17:26:09.412Z,38.27
2018-11-05T17:28:36.946Z,39.80
2018-11-05T17:31:05.666Z,38.73
2018-11-05T17:33:33.427Z,38.60
2018-11-05T17:36:00.973Z,38.73
2018-11-05T17:38:28.545Z,37.10
2018-11-05T17:40:56.032Z,38.43
2018-11-05T17:43:23.558Z,39.10
2018-11-05T17:45:51.058Z,36.77
2018-11-05T17:48:18.662Z,39.43
2018-11-05T17:50:46.262Z,33.53
2018-11-05T17:53:13.822Z,36.63
2018-11-05T17:55:41.354Z,37.03
2018-11-05T17:58:08.968Z,39.07
2018-11-05T18:00:36.490Z,43.63
2018-11-05T18:03:04.306Z,37.10
2018-11-05T18:05:31.900Z,30.57
2018-11-05T18:07:59.466Z,38.50
2018-11-05T18:10:26.969Z,34.60
2018-11-05T18:12:54.488Z,37.00
2018-11-05T18:15:22.011Z,40.17
2018-11-05T18:17:49.426Z,36.20
2018-11-05T18:20:17.636Z,46.60
2018-11-05T18:22:45.238Z,35.50
2018-11-05T18:25:14.344Z,37.73
2018-11-05T18:27:42.216Z,39.53
2018-11-05T18:30:10.893Z,37.00
2018-11-05T18:32:38.375Z,37.33
2018-11-05T18:35:07.995Z,44.00
2018-11-05T18:37:35.877Z,48.63
2018-11-05T18:40:04.747Z,43.07
2018-11-05T18:42:32.297Z,34.60
2018-11-05T18:44:59.896Z,44.10
2018-11-05T18:47:27.552Z,43.33
2018-11-05T18:49:55.153Z,42.83
2018-11-05T18:52:22.813Z,42.07
2018-11-05T18:54:50.470Z,45.47
2018-11-05T18:57:18.094Z,42.40
2018-11-05T18:59:45.527Z,45.03
2018-11-05T19:02:18.721Z,39.50
2018-11-05T19:04:46.214Z,49.53
2018-11-05T19:07:13.711Z,39.80
2018-11-05T19:09:41.200Z,44.40
2018-11-05T19:12:08.690Z,49.10
2018-11-05T19:14:36.173Z,47.77
2018-11-05T19:17:03.771Z,47.70
2018-11-05T19:19:31.194Z,43.10
2018-11-05T19:21:58.765Z,47.37
2018-11-05T19:24:26.600Z,46.13
2018-11-05T19:26:53.864Z,49.27
2018-11-05T19:29:21.433Z,50.20
2018-11-05T19:31:49.244Z,46.57
2018-11-05T19:34:16.721Z,53.10
2018-11-05T19:36:44.312Z,50.20
2018-11-05T19:39:12.950Z,43.83
2018-11-05T19:41:41.020Z,52.20
2018-11-05T19:44:08.531Z,48.57
2018-11-05T19:46:36.498Z,48.93
2018-11-05T19:49:03.974Z,52.17
2018-11-05T19:51:31.497Z,49.27
2018-11-05T19:53:59.086Z,50.73
2018-11-05T19:56:26.664Z,54.37
2018-11-05T19:58:54.199Z,53.67
2018-11-05T20:01:21.975Z,52.53
2018-11-05T20:03:49.458Z,49.10
2018-11-05T20:06:17.038Z,52.00
2018-11-05T20:08:44.866Z,47.37
2018-11-05T20:11:12.402Z,50.07
2018-11-05T20:13:39.875Z,62.93
2018-11-05T20:16:07.633Z,50.03
2018-11-05T20:18:35.154Z,51.83
2018-11-05T20:21:02.774Z,52.10
2018-11-05T20:23:30.322Z,53.60
2018-11-05T20:25:57.872Z,94.53
2018-11-05T20:28:25.458Z,50.57
2018-11-05T20:30:53.118Z,53.00
2018-11-05T20:33:21.006Z,58.10
2018-11-05T20:35:48.299Z,50.43
2018-11-05T20:38:15.891Z,50.83
2018-11-05T20:40:43.446Z,53.57
2018-11-05T20:43:11.015Z,48.67
2018-11-05T20:45:38.548Z,55.40
2018-11-05T20:48:06.119Z,55.57
2018-11-05T20:50:33.659Z,49.63
2018-11-05T20:53:01.153Z,61.63
2018-11-05T20:55:28.731Z,63.30
2018-11-05T20:57:56.250Z,56.20
2018-11-05T21:00:23.764Z,45.70
2018-11-05T21:02:51.566Z,46.73
2018-11-05T21:05:19.114Z,55.33
2018-11-05T21:07:46.595Z,48.67
2018-11-05T21:10:14.495Z,49.60
2018-11-05T21:12:42.719Z,48.30
2018-11-05T21:15:15.941Z,58.20
2018-11-05T21:17:44.697Z,48.20
2018-11-05T21:20:13.015Z,42.00
2018-11-05T21:22:40.569Z,41.40
2018-11-05T21:25:08.394Z,39.20
2018-11-05T21:27:35.896Z,45.13
2018-11-05T21:30:04.176Z,57.13
2018-11-05T21:32:32.125Z,48.03
2018-11-05T21:34:59.686Z,56.00
2018-11-05T21:37:27.063Z,45.73
2018-11-05T21:39:54.534Z,41.00
2018-11-05T21:42:22.030Z,49.37
2018-11-05T21:44:49.626Z,49.83
2018-11-05T21:47:17.312Z,49.80
2018-11-05T21:49:44.815Z,40.80
2018-11-05T21:52:12.302Z,39.57
2018-11-05T21:54:39.718Z,49.73
2018-11-05T21:57:07.136Z,53.23
2018-11-05T21:59:34.617Z,45.13
2018-11-05T22:02:02.210Z,42.93
2018-11-05T22:04:29.921Z,55.50
2018-11-05T22:06:57.493Z,41.23
2018-11-05T22:09:24.945Z,50.80
2018-11-05T22:11:52.406Z,47.37
2018-11-05T22:14:19.902Z,50.03
2018-11-05T22:16:47.618Z,45.00
2018-11-05T22:19:15.045Z,46.20
2018-11-05T22:21:42.554Z,48.67
2018-11-05T22:24:10.160Z,47.73
2018-11-05T22:26:37.707Z,47.30
2018-11-05T22:29:05.382Z,54.63
2018-11-05T22:31:32.922Z,50.90
2018-11-05T22:34:00.430Z,50.90
2018-11-05T22:36:27.922Z,47.37
2018-11-05T22:38:55.318Z,60.60
2018-11-05T22:41:22.883Z,58.07
2018-11-05T22:43:50.556Z,47.03
2018-11-05T22:46:18.026Z,44.47
2018-11-05T22:48:45.498Z,58.50
2018-11-05T22:51:13.011Z,50.53
2018-11-05T22:53:40.528Z,50.60
2018-11-05T22:56:08.215Z,50.70
2018-11-05T22:58:35.717Z,51.93
2018-11-05T23:01:07.526Z,49.00
2018-11-05T23:03:35.086Z,55.73
2018-11-05T23:06:02.910Z,50.33
2018-11-05T23:08:30.393Z,50.53
2018-11-05T23:10:58.192Z,59.43
2018-11-05T23:13:25.712Z,56.07
2018-11-05T23:15:56.028Z,66.47
2018-11-05T23:18:23.556Z,64.30
2018-11-05T23:20:51.048Z,63.43
2018-11-05T23:23:18.516Z,55.33
2018-11-05T23:25:46.131Z,46.20
2018-11-05T23:28:13.588Z,63.13
2018-11-05T23:30:41.046Z,48.67
2018-11-05T23:33:08.546Z,61.50
2018-11-05T23:35:36.135Z,60.20
2018-11-05T23:38:03.580Z,64.30
2018-11-05T23:40:31.074Z,51.27
2018-11-05T23:42:58.510Z,48.03
2018-11-05T23:45:26.010Z,53.33
2018-11-05T23:47:53.396Z,59.77
2018-11-05T23:50:21.816Z,54.77
2018-11-05T23:52:49.435Z,49.30
2018-11-05T23:55:17.017Z,57.70
2018-11-05T23:57:44.512Z,58.60
